sensor_id;sensor_type;location;lat;lon;timestamp;P1;durP1;ratioP1;P2;durP2;ratioP2
13708;SDS011;54933;51.908;7.730;2023-05-23T00:01:04;1.67;;;1.57;;
13708;SDS011;54933;51.908;7.730;2023-05-23T00:03:31;1.30;;;1.30;;
13708;SDS011;54933;51.908;7.730;2023-05-23T00:05:57;1.60;;;1.60;;
13708;SDS011;54933;51.908;7.730;2023-05-23T00:08:23;1.70;;;1.70;;
13708;SDS011;54933;51.908;7.730;2023-05-23T00:10:48;1.50;;;1.50;;
13708;SDS011;54933;51.908;7.730;2023-05-23T00:13:14;1.73;;;1.63;;
13708;SDS011;54933;51.908;7.730;2023-05-23T00:15:40;1.23;;;1.23;;
13708;SDS011;54933;51.908;7.730;2023-05-23T00:18:06;1.50;;;1.40;;
13708;SDS011;54933;51.908;7.730;2023-05-23T00:20:33;1.47;;;1.47;;
13708;SDS011;54933;51.908;7.730;2023-05-23T00:23:00;1.73;;;1.63;;
13708;SDS011;54933;51.908;7.730;2023-05-23T00:25:27;1.63;;;1.53;;
13708;SDS011;54933;51.908;7.730;2023-05-23T00:27:58;1.43;;;1.40;;
13708;SDS011;54933;51.908;7.730;2023-05-23T00:30:29;1.60;;;1.53;;
13708;SDS011;54933;51.908;7.730;2023-05-23T00:32:56;1.33;;;1.33;;
13708;SDS011;54933;51.908;7.730;2023-05-23T00:35:22;1.50;;;1.40;;
13708;SDS011;54933;51.908;7.730;2023-05-23T00:37:48;1.90;;;1.80;;
13708;SDS011;54933;51.908;7.730;2023-05-23T00:40:15;1.33;;;1.33;;
13708;SDS011;54933;51.908;7.730;2023-05-23T00:42:44;1.93;;;1.57;;
13708;SDS011;54933;51.908;7.730;2023-05-23T00:45:10;1.40;;;1.40;;
13708;SDS011;54933;51.908;7.730;2023-05-23T00:47:38;1.40;;;1.40;;
13708;SDS011;54933;51.908;7.730;2023-05-23T00:50:06;1.33;;;1.33;;
13708;SDS011;54933;51.908;7.730;2023-05-23T00:52:34;1.37;;;1.37;;
13708;SDS011;54933;51.908;7.730;2023-05-23T00:55:00;1.40;;;1.40;;
13708;SDS011;54933;51.908;7.730;2023-05-23T00:57:25;1.20;;;1.20;;
13708;SDS011;54933;51.908;7.730;2023-05-23T00:59:51;1.40;;;1.40;;
13708;SDS011;54933;51.908;7.730;2023-05-23T01:02:16;1.60;;;1.50;;
13708;SDS011;54933;51.908;7.730;2023-05-23T01:04:42;1.53;;;1.43;;
13708;SDS011;54933;51.908;7.730;2023-05-23T01:07:08;1.63;;;1.53;;
13708;SDS011;54933;51.908;7.730;2023-05-23T01:09:34;1.37;;;1.27;;
13708;SDS011;54933;51.908;7.730;2023-05-23T01:17:25;1.20;;;1.20;;
13708;SDS011;54933;51.908;7.730;2023-05-23T01:20:04;1.50;;;1.40;;
13708;SDS011;54933;51.908;7.730;2023-05-23T01:25:38;1.40;;;1.30;;
13708;SDS011;54933;51.908;7.730;2023-05-23T01:28:17;1.20;;;1.20;;
13708;SDS011;54933;51.908;7.730;2023-05-23T01:30:45;1.07;;;1.07;;
13708;SDS011;54933;51.908;7.730;2023-05-23T01:33:15;1.20;;;1.20;;
13708;SDS011;54933;51.908;7.730;2023-05-23T01:35:44;1.37;;;1.30;;
13708;SDS011;54933;51.908;7.730;2023-05-23T01:38:10;1.00;;;1.00;;
13708;SDS011;54933;51.908;7.730;2023-05-23T01:40:35;1.20;;;1.20;;
13708;SDS011;54933;51.908;7.730;2023-05-23T01:43:01;1.30;;;1.30;;
13708;SDS011;54933;51.908;7.730;2023-05-23T01:45:26;1.10;;;1.10;;
13708;SDS011;54933;51.908;7.730;2023-05-23T01:47:53;1.13;;;1.13;;
13708;SDS011;54933;51.908;7.730;2023-05-23T01:50:20;1.20;;;1.20;;
13708;SDS011;54933;51.908;7.730;2023-05-23T01:52:47;1.80;;;1.43;;
13708;SDS011;54933;51.908;7.730;2023-05-23T01:55:13;1.17;;;1.17;;
13708;SDS011;54933;51.908;7.730;2023-05-23T01:57:42;1.10;;;1.10;;
13708;SDS011;54933;51.908;7.730;2023-05-23T02:00:12;1.57;;;1.20;;
13708;SDS011;54933;51.908;7.730;2023-05-23T02:02:39;1.43;;;1.33;;
13708;SDS011;54933;51.908;7.730;2023-05-23T02:05:05;1.10;;;1.10;;
13708;SDS011;54933;51.908;7.730;2023-05-23T02:07:30;1.00;;;1.00;;
13708;SDS011;54933;51.908;7.730;2023-05-23T02:09:56;1.13;;;1.07;;
13708;SDS011;54933;51.908;7.730;2023-05-23T02:12:21;1.27;;;1.27;;
13708;SDS011;54933;51.908;7.730;2023-05-23T02:14:46;1.30;;;1.30;;
13708;SDS011;54933;51.908;7.730;2023-05-23T02:17:11;1.20;;;1.20;;
13708;SDS011;54933;51.908;7.730;2023-05-23T02:19:38;1.23;;;1.23;;
13708;SDS011;54933;51.908;7.730;2023-05-23T02:22:04;1.20;;;1.20;;
13708;SDS011;54933;51.908;7.730;2023-05-23T02:24:29;1.07;;;1.07;;
13708;SDS011;54933;51.908;7.730;2023-05-23T02:26:54;1.20;;;1.20;;
13708;SDS011;54933;51.908;7.730;2023-05-23T02:29:20;1.23;;;1.23;;
13708;SDS011;54933;51.908;7.730;2023-05-23T02:31:45;1.03;;;1.03;;
13708;SDS011;54933;51.908;7.730;2023-05-23T02:34:11;1.20;;;1.10;;
13708;SDS011;54933;51.908;7.730;2023-05-23T02:36:36;1.30;;;1.30;;
13708;SDS011;54933;51.908;7.730;2023-05-23T02:39:04;1.03;;;1.03;;
13708;SDS011;54933;51.908;7.730;2023-05-23T02:41:30;1.30;;;1.30;;
13708;SDS011;54933;51.908;7.730;2023-05-23T02:43:56;1.20;;;1.20;;
13708;SDS011;54933;51.908;7.730;2023-05-23T02:46:22;1.10;;;1.10;;
13708;SDS011;54933;51.908;7.730;2023-05-23T02:48:48;1.00;;;1.00;;
13708;SDS011;54933;51.908;7.730;2023-05-23T02:51:13;1.13;;;1.13;;
13708;SDS011;54933;51.908;7.730;2023-05-23T02:53:38;1.13;;;1.13;;
13708;SDS011;54933;51.908;7.730;2023-05-23T02:56:04;1.33;;;1.33;;
13708;SDS011;54933;51.908;7.730;2023-05-23T02:58:29;1.03;;;1.03;;
13708;SDS011;54933;51.908;7.730;2023-05-23T03:00:55;1.10;;;1.10;;
13708;SDS011;54933;51.908;7.730;2023-05-23T03:03:21;1.10;;;1.10;;
13708;SDS011;54933;51.908;7.730;2023-05-23T03:05:46;1.00;;;1.00;;
13708;SDS011;54933;51.908;7.730;2023-05-23T03:08:12;1.20;;;1.20;;
13708;SDS011;54933;51.908;7.730;2023-05-23T03:10:37;1.10;;;1.10;;
13708;SDS011;54933;51.908;7.730;2023-05-23T03:13:02;1.03;;;1.03;;
13708;SDS011;54933;51.908;7.730;2023-05-23T03:15:28;1.13;;;1.13;;
13708;SDS011;54933;51.908;7.730;2023-05-23T03:17:53;1.23;;;1.20;;
13708;SDS011;54933;51.908;7.730;2023-05-23T03:20:19;1.30;;;1.20;;
13708;SDS011;54933;51.908;7.730;2023-05-23T03:22:44;1.30;;;1.27;;
13708;SDS011;54933;51.908;7.730;2023-05-23T03:25:10;1.30;;;1.30;;
13708;SDS011;54933;51.908;7.730;2023-05-23T03:27:35;1.17;;;1.17;;
13708;SDS011;54933;51.908;7.730;2023-05-23T03:30:01;1.00;;;1.00;;
13708;SDS011;54933;51.908;7.730;2023-05-23T03:32:29;1.40;;;1.30;;
13708;SDS011;54933;51.908;7.730;2023-05-23T03:34:55;1.03;;;1.03;;
13708;SDS011;54933;51.908;7.730;2023-05-23T03:37:20;1.20;;;1.20;;
13708;SDS011;54933;51.908;7.730;2023-05-23T03:39:45;1.10;;;1.10;;
13708;SDS011;54933;51.908;7.730;2023-05-23T03:42:11;1.23;;;1.23;;
13708;SDS011;54933;51.908;7.730;2023-05-23T03:44:36;0.90;;;0.90;;
13708;SDS011;54933;51.908;7.730;2023-05-23T03:47:01;1.20;;;1.20;;
13708;SDS011;54933;51.908;7.730;2023-05-23T03:49:27;1.10;;;1.10;;
13708;SDS011;54933;51.908;7.730;2023-05-23T03:51:52;1.20;;;1.20;;
13708;SDS011;54933;51.908;7.730;2023-05-23T03:54:17;1.00;;;1.00;;
13708;SDS011;54933;51.908;7.730;2023-05-23T03:56:43;1.50;;;1.40;;
13708;SDS011;54933;51.908;7.730;2023-05-23T03:59:08;1.50;;;1.40;;
13708;SDS011;54933;51.908;7.730;2023-05-23T04:01:33;1.27;;;1.27;;
13708;SDS011;54933;51.908;7.730;2023-05-23T04:03:58;1.00;;;1.00;;
13708;SDS011;54933;51.908;7.730;2023-05-23T04:06:24;1.00;;;1.00;;
13708;SDS011;54933;51.908;7.730;2023-05-23T04:08:50;1.17;;;1.17;;
13708;SDS011;54933;51.908;7.730;2023-05-23T04:11:15;1.30;;;1.30;;
13708;SDS011;54933;51.908;7.730;2023-05-23T04:13:41;1.30;;;1.30;;
13708;SDS011;54933;51.908;7.730;2023-05-23T04:16:07;1.27;;;1.20;;
13708;SDS011;54933;51.908;7.730;2023-05-23T04:18:33;1.20;;;1.20;;
13708;SDS011;54933;51.908;7.730;2023-05-23T04:20:58;1.07;;;1.07;;
13708;SDS011;54933;51.908;7.730;2023-05-23T04:23:24;1.33;;;1.20;;
13708;SDS011;54933;51.908;7.730;2023-05-23T04:25:49;1.07;;;1.07;;
13708;SDS011;54933;51.908;7.730;2023-05-23T04:28:15;1.07;;;1.07;;
13708;SDS011;54933;51.908;7.730;2023-05-23T04:30:41;0.87;;;0.87;;
13708;SDS011;54933;51.908;7.730;2023-05-23T04:33:07;1.30;;;1.20;;
13708;SDS011;54933;51.908;7.730;2023-05-23T04:35:32;1.20;;;1.20;;
13708;SDS011;54933;51.908;7.730;2023-05-23T04:37:58;1.00;;;1.00;;
13708;SDS011;54933;51.908;7.730;2023-05-23T04:40:23;1.03;;;1.03;;
13708;SDS011;54933;51.908;7.730;2023-05-23T04:42:49;1.10;;;1.10;;
13708;SDS011;54933;51.908;7.730;2023-05-23T04:45:17;0.97;;;0.97;;
13708;SDS011;54933;51.908;7.730;2023-05-23T04:47:43;1.00;;;1.00;;
13708;SDS011;54933;51.908;7.730;2023-05-23T04:50:09;0.80;;;0.80;;
13708;SDS011;54933;51.908;7.730;2023-05-23T04:52:35;1.00;;;1.00;;
13708;SDS011;54933;51.908;7.730;2023-05-23T04:55:00;1.20;;;1.20;;
13708;SDS011;54933;51.908;7.730;2023-05-23T04:57:26;0.90;;;0.90;;
13708;SDS011;54933;51.908;7.730;2023-05-23T04:59:51;0.90;;;0.90;;
13708;SDS011;54933;51.908;7.730;2023-05-23T05:02:16;0.90;;;0.90;;
13708;SDS011;54933;51.908;7.730;2023-05-23T05:04:41;1.00;;;1.00;;
13708;SDS011;54933;51.908;7.730;2023-05-23T05:07:07;0.97;;;0.97;;
13708;SDS011;54933;51.908;7.730;2023-05-23T05:09:32;0.97;;;0.97;;
13708;SDS011;54933;51.908;7.730;2023-05-23T05:11:57;0.83;;;0.83;;
13708;SDS011;54933;51.908;7.730;2023-05-23T05:14:24;1.20;;;1.20;;
13708;SDS011;54933;51.908;7.730;2023-05-23T05:16:50;1.03;;;1.03;;
13708;SDS011;54933;51.908;7.730;2023-05-23T05:19:16;1.10;;;1.00;;
13708;SDS011;54933;51.908;7.730;2023-05-23T05:21:41;0.90;;;0.90;;
13708;SDS011;54933;51.908;7.730;2023-05-23T05:24:06;0.80;;;0.80;;
13708;SDS011;54933;51.908;7.730;2023-05-23T05:26:33;0.90;;;0.90;;
13708;SDS011;54933;51.908;7.730;2023-05-23T05:29:00;1.00;;;1.00;;
13708;SDS011;54933;51.908;7.730;2023-05-23T05:31:25;1.20;;;1.20;;
13708;SDS011;54933;51.908;7.730;2023-05-23T05:33:51;0.90;;;0.90;;
13708;SDS011;54933;51.908;7.730;2023-05-23T05:36:18;1.00;;;1.00;;
13708;SDS011;54933;51.908;7.730;2023-05-23T05:38:43;1.03;;;1.03;;
13708;SDS011;54933;51.908;7.730;2023-05-23T05:41:09;1.13;;;1.13;;
13708;SDS011;54933;51.908;7.730;2023-05-23T05:43:34;1.07;;;1.07;;
13708;SDS011;54933;51.908;7.730;2023-05-23T05:45:59;1.00;;;1.00;;
13708;SDS011;54933;51.908;7.730;2023-05-23T05:48:25;1.10;;;1.10;;
13708;SDS011;54933;51.908;7.730;2023-05-23T05:50:50;0.90;;;0.90;;
13708;SDS011;54933;51.908;7.730;2023-05-23T05:53:15;1.00;;;1.00;;
13708;SDS011;54933;51.908;7.730;2023-05-23T05:55:40;1.20;;;1.20;;
13708;SDS011;54933;51.908;7.730;2023-05-23T05:58:06;1.00;;;1.00;;
13708;SDS011;54933;51.908;7.730;2023-05-23T06:00:31;1.10;;;1.10;;
13708;SDS011;54933;51.908;7.730;2023-05-23T06:02:58;1.40;;;1.30;;
13708;SDS011;54933;51.908;7.730;2023-05-23T06:05:24;1.20;;;1.20;;
13708;SDS011;54933;51.908;7.730;2023-05-23T06:07:50;1.10;;;1.10;;
13708;SDS011;54933;51.908;7.730;2023-05-23T06:10:15;1.00;;;1.00;;
13708;SDS011;54933;51.908;7.730;2023-05-23T06:12:41;0.97;;;0.97;;
13708;SDS011;54933;51.908;7.730;2023-05-23T06:15:07;1.00;;;1.00;;
13708;SDS011;54933;51.908;7.730;2023-05-23T06:17:33;1.37;;;1.30;;
13708;SDS011;54933;51.908;7.730;2023-05-23T06:19:59;1.00;;;1.00;;
13708;SDS011;54933;51.908;7.730;2023-05-23T06:22:25;1.20;;;1.20;;
13708;SDS011;54933;51.908;7.730;2023-05-23T06:24:50;1.23;;;1.23;;
13708;SDS011;54933;51.908;7.730;2023-05-23T06:27:15;0.93;;;0.93;;
13708;SDS011;54933;51.908;7.730;2023-05-23T06:29:40;1.53;;;1.10;;
13708;SDS011;54933;51.908;7.730;2023-05-23T06:32:06;1.13;;;1.13;;
13708;SDS011;54933;51.908;7.730;2023-05-23T06:34:31;1.00;;;1.00;;
13708;SDS011;54933;51.908;7.730;2023-05-23T06:36:56;1.10;;;1.10;;
13708;SDS011;54933;51.908;7.730;2023-05-23T06:39:22;1.83;;;1.20;;
13708;SDS011;54933;51.908;7.730;2023-05-23T06:41:47;0.90;;;0.90;;
13708;SDS011;54933;51.908;7.730;2023-05-23T06:44:13;0.90;;;0.90;;
13708;SDS011;54933;51.908;7.730;2023-05-23T06:46:38;1.40;;;1.00;;
13708;SDS011;54933;51.908;7.730;2023-05-23T06:49:04;1.10;;;1.10;;
13708;SDS011;54933;51.908;7.730;2023-05-23T06:51:29;0.90;;;0.90;;
13708;SDS011;54933;51.908;7.730;2023-05-23T06:53:55;1.00;;;1.00;;
13708;SDS011;54933;51.908;7.730;2023-05-23T06:56:21;0.80;;;0.80;;
13708;SDS011;54933;51.908;7.730;2023-05-23T06:58:47;1.00;;;1.00;;
13708;SDS011;54933;51.908;7.730;2023-05-23T07:01:12;0.87;;;0.87;;
13708;SDS011;54933;51.908;7.730;2023-05-23T07:03:37;1.10;;;1.10;;
13708;SDS011;54933;51.908;7.730;2023-05-23T07:06:05;1.00;;;1.00;;
13708;SDS011;54933;51.908;7.730;2023-05-23T07:08:31;1.10;;;1.10;;
13708;SDS011;54933;51.908;7.730;2023-05-23T07:10:56;0.83;;;0.83;;
13708;SDS011;54933;51.908;7.730;2023-05-23T07:13:22;0.87;;;0.87;;
13708;SDS011;54933;51.908;7.730;2023-05-23T07:15:47;0.70;;;0.70;;
13708;SDS011;54933;51.908;7.730;2023-05-23T07:18:12;0.90;;;0.90;;
13708;SDS011;54933;51.908;7.730;2023-05-23T07:20:38;0.80;;;0.80;;
13708;SDS011;54933;51.908;7.730;2023-05-23T07:23:03;0.90;;;0.90;;
13708;SDS011;54933;51.908;7.730;2023-05-23T07:25:28;0.83;;;0.83;;
13708;SDS011;54933;51.908;7.730;2023-05-23T07:27:53;1.03;;;1.03;;
13708;SDS011;54933;51.908;7.730;2023-05-23T07:30:19;1.00;;;1.00;;
13708;SDS011;54933;51.908;7.730;2023-05-23T07:32:46;0.90;;;0.90;;
13708;SDS011;54933;51.908;7.730;2023-05-23T07:35:13;0.80;;;0.80;;
13708;SDS011;54933;51.908;7.730;2023-05-23T07:37:41;0.77;;;0.77;;
13708;SDS011;54933;51.908;7.730;2023-05-23T07:40:06;0.77;;;0.77;;
13708;SDS011;54933;51.908;7.730;2023-05-23T07:42:33;0.90;;;0.90;;
13708;SDS011;54933;51.908;7.730;2023-05-23T07:44:58;0.87;;;0.87;;
13708;SDS011;54933;51.908;7.730;2023-05-23T07:47:24;0.87;;;0.87;;
13708;SDS011;54933;51.908;7.730;2023-05-23T07:49:49;0.80;;;0.80;;
13708;SDS011;54933;51.908;7.730;2023-05-23T07:52:16;0.70;;;0.70;;
13708;SDS011;54933;51.908;7.730;2023-05-23T07:54:41;0.93;;;0.93;;
13708;SDS011;54933;51.908;7.730;2023-05-23T07:57:07;0.80;;;0.80;;
13708;SDS011;54933;51.908;7.730;2023-05-23T07:59:32;0.80;;;0.80;;
13708;SDS011;54933;51.908;7.730;2023-05-23T08:01:58;0.73;;;0.73;;
13708;SDS011;54933;51.908;7.730;2023-05-23T08:04:23;0.90;;;0.90;;
13708;SDS011;54933;51.908;7.730;2023-05-23T08:06:48;0.87;;;0.87;;
13708;SDS011;54933;51.908;7.730;2023-05-23T08:09:13;0.73;;;0.73;;
13708;SDS011;54933;51.908;7.730;2023-05-23T08:11:39;1.00;;;1.00;;
13708;SDS011;54933;51.908;7.730;2023-05-23T08:14:04;0.80;;;0.80;;
13708;SDS011;54933;51.908;7.730;2023-05-23T08:16:30;0.70;;;0.70;;
13708;SDS011;54933;51.908;7.730;2023-05-23T08:18:55;0.73;;;0.73;;
13708;SDS011;54933;51.908;7.730;2023-05-23T08:21:20;0.70;;;0.70;;
13708;SDS011;54933;51.908;7.730;2023-05-23T08:23:46;0.70;;;0.70;;
13708;SDS011;54933;51.908;7.730;2023-05-23T08:26:12;0.70;;;0.70;;
13708;SDS011;54933;51.908;7.730;2023-05-23T08:28:37;0.80;;;0.80;;
13708;SDS011;54933;51.908;7.730;2023-05-23T08:31:02;0.60;;;0.60;;
13708;SDS011;54933;51.908;7.730;2023-05-23T08:33:28;0.80;;;0.80;;
13708;SDS011;54933;51.908;7.730;2023-05-23T08:35:53;0.80;;;0.80;;
13708;SDS011;54933;51.908;7.730;2023-05-23T08:38:19;1.00;;;1.00;;
13708;SDS011;54933;51.908;7.730;2023-05-23T08:40:48;0.67;;;0.67;;
13708;SDS011;54933;51.908;7.730;2023-05-23T08:43:17;1.10;;;1.03;;
13708;SDS011;54933;51.908;7.730;2023-05-23T08:45:44;0.80;;;0.80;;
13708;SDS011;54933;51.908;7.730;2023-05-23T08:48:10;0.73;;;0.73;;
13708;SDS011;54933;51.908;7.730;2023-05-23T08:50:37;0.87;;;0.83;;
13708;SDS011;54933;51.908;7.730;2023-05-23T08:53:04;0.77;;;0.77;;
13708;SDS011;54933;51.908;7.730;2023-05-23T08:55:32;0.70;;;0.70;;
13708;SDS011;54933;51.908;7.730;2023-05-23T08:57:58;1.90;;;0.80;;
13708;SDS011;54933;51.908;7.730;2023-05-23T09:00:24;0.87;;;0.87;;
13708;SDS011;54933;51.908;7.730;2023-05-23T09:02:50;0.80;;;0.80;;
13708;SDS011;54933;51.908;7.730;2023-05-23T09:05:16;0.80;;;0.80;;
13708;SDS011;54933;51.908;7.730;2023-05-23T09:07:43;0.70;;;0.70;;
13708;SDS011;54933;51.908;7.730;2023-05-23T09:10:12;0.90;;;0.90;;
13708;SDS011;54933;51.908;7.730;2023-05-23T09:12:38;0.60;;;0.60;;
13708;SDS011;54933;51.908;7.730;2023-05-23T09:15:04;0.70;;;0.70;;
13708;SDS011;54933;51.908;7.730;2023-05-23T09:17:31;0.73;;;0.73;;
13708;SDS011;54933;51.908;7.730;2023-05-23T09:19:57;0.90;;;0.90;;
13708;SDS011;54933;51.908;7.730;2023-05-23T09:22:23;0.60;;;0.60;;
13708;SDS011;54933;51.908;7.730;2023-05-23T09:24:50;0.70;;;0.70;;
13708;SDS011;54933;51.908;7.730;2023-05-23T09:27:17;0.70;;;0.70;;
13708;SDS011;54933;51.908;7.730;2023-05-23T09:29:42;0.60;;;0.60;;
13708;SDS011;54933;51.908;7.730;2023-05-23T09:32:17;0.90;;;0.77;;
13708;SDS011;54933;51.908;7.730;2023-05-23T09:34:57;0.83;;;0.83;;
13708;SDS011;54933;51.908;7.730;2023-05-23T09:37:36;0.80;;;0.80;;
13708;SDS011;54933;51.908;7.730;2023-05-23T09:40:09;0.70;;;0.70;;
13708;SDS011;54933;51.908;7.730;2023-05-23T09:42:43;0.63;;;0.63;;
13708;SDS011;54933;51.908;7.730;2023-05-23T09:45:10;0.60;;;0.60;;
13708;SDS011;54933;51.908;7.730;2023-05-23T09:47:36;0.63;;;0.63;;
13708;SDS011;54933;51.908;7.730;2023-05-23T09:50:01;1.03;;;0.97;;
13708;SDS011;54933;51.908;7.730;2023-05-23T09:52:32;0.60;;;0.60;;
13708;SDS011;54933;51.908;7.730;2023-05-23T09:55:01;0.90;;;0.90;;
13708;SDS011;54933;51.908;7.730;2023-05-23T09:57:26;0.90;;;0.90;;
13708;SDS011;54933;51.908;7.730;2023-05-23T09:59:52;0.77;;;0.77;;
13708;SDS011;54933;51.908;7.730;2023-05-23T10:02:28;0.70;;;0.70;;
13708;SDS011;54933;51.908;7.730;2023-05-23T10:05:37;0.50;;;0.50;;
13708;SDS011;54933;51.908;7.730;2023-05-23T10:08:17;0.80;;;0.80;;
13708;SDS011;54933;51.908;7.730;2023-05-23T10:13:24;1.20;;;1.00;;
13708;SDS011;54933;51.908;7.730;2023-05-23T10:15:51;0.70;;;0.70;;
13708;SDS011;54933;51.908;7.730;2023-05-23T10:18:32;0.97;;;0.97;;
13708;SDS011;54933;51.908;7.730;2023-05-23T10:21:04;0.73;;;0.70;;
13708;SDS011;54933;51.908;7.730;2023-05-23T10:23:36;0.80;;;0.80;;
13708;SDS011;54933;51.908;7.730;2023-05-23T10:26:03;0.60;;;0.60;;
13708;SDS011;54933;51.908;7.730;2023-05-23T10:28:29;0.90;;;0.90;;
13708;SDS011;54933;51.908;7.730;2023-05-23T10:30:55;0.60;;;0.60;;
13708;SDS011;54933;51.908;7.730;2023-05-23T10:33:21;1.20;;;0.77;;
13708;SDS011;54933;51.908;7.730;2023-05-23T10:36:51;0.67;;;0.67;;
13708;SDS011;54933;51.908;7.730;2023-05-23T10:38:59;1.67;;;0.63;;
13708;SDS011;54933;51.908;7.730;2023-05-23T10:41:35;0.50;;;0.50;;
13708;SDS011;54933;51.908;7.730;2023-05-23T10:44:22;0.60;;;0.60;;
13708;SDS011;54933;51.908;7.730;2023-05-23T10:46:53;1.10;;;0.80;;
13708;SDS011;54933;51.908;7.730;2023-05-23T10:49:19;1.10;;;0.83;;
13708;SDS011;54933;51.908;7.730;2023-05-23T10:51:47;0.80;;;0.80;;
13708;SDS011;54933;51.908;7.730;2023-05-23T10:54:15;1.00;;;0.90;;
13708;SDS011;54933;51.908;7.730;2023-05-23T10:56:42;0.83;;;0.83;;
13708;SDS011;54933;51.908;7.730;2023-05-23T10:59:08;0.80;;;0.80;;
13708;SDS011;54933;51.908;7.730;2023-05-23T11:01:44;0.97;;;0.97;;
13708;SDS011;54933;51.908;7.730;2023-05-23T11:04:09;0.53;;;0.53;;
13708;SDS011;54933;51.908;7.730;2023-05-23T11:06:39;0.90;;;0.90;;
13708;SDS011;54933;51.908;7.730;2023-05-23T11:09:12;0.80;;;0.80;;
13708;SDS011;54933;51.908;7.730;2023-05-23T11:11:59;0.60;;;0.60;;
13708;SDS011;54933;51.908;7.730;2023-05-23T11:17:01;0.77;;;0.77;;
13708;SDS011;54933;51.908;7.730;2023-05-23T11:20:14;0.70;;;0.70;;
13708;SDS011;54933;51.908;7.730;2023-05-23T11:22:33;0.80;;;0.80;;
13708;SDS011;54933;51.908;7.730;2023-05-23T11:25:00;0.70;;;0.70;;
13708;SDS011;54933;51.908;7.730;2023-05-23T11:27:33;0.80;;;0.80;;
13708;SDS011;54933;51.908;7.730;2023-05-23T11:30:00;0.90;;;0.90;;
13708;SDS011;54933;51.908;7.730;2023-05-23T11:32:40;0.80;;;0.80;;
13708;SDS011;54933;51.908;7.730;2023-05-23T11:35:06;0.97;;;0.60;;
13708;SDS011;54933;51.908;7.730;2023-05-23T11:37:33;0.60;;;0.60;;
13708;SDS011;54933;51.908;7.730;2023-05-23T11:40:00;0.87;;;0.83;;
13708;SDS011;54933;51.908;7.730;2023-05-23T11:43:06;0.83;;;0.83;;
13708;SDS011;54933;51.908;7.730;2023-05-23T11:45:32;1.33;;;0.80;;
13708;SDS011;54933;51.908;7.730;2023-05-23T11:48:05;0.70;;;0.70;;
13708;SDS011;54933;51.908;7.730;2023-05-23T11:50:31;1.00;;;0.90;;
13708;SDS011;54933;51.908;7.730;2023-05-23T11:52:57;0.70;;;0.70;;
13708;SDS011;54933;51.908;7.730;2023-05-23T11:55:23;3.53;;;0.70;;
13708;SDS011;54933;51.908;7.730;2023-05-23T11:57:49;1.70;;;0.87;;
13708;SDS011;54933;51.908;7.730;2023-05-23T12:00:15;0.73;;;0.73;;
13708;SDS011;54933;51.908;7.730;2023-05-23T12:02:42;0.90;;;0.90;;
13708;SDS011;54933;51.908;7.730;2023-05-23T12:07:34;1.60;;;0.87;;
13708;SDS011;54933;51.908;7.730;2023-05-23T12:10:01;0.83;;;0.83;;
13708;SDS011;54933;51.908;7.730;2023-05-23T12:12:28;0.60;;;0.60;;
13708;SDS011;54933;51.908;7.730;2023-05-23T12:14:56;0.70;;;0.70;;
13708;SDS011;54933;51.908;7.730;2023-05-23T12:17:22;1.10;;;0.97;;
13708;SDS011;54933;51.908;7.730;2023-05-23T12:19:48;0.80;;;0.80;;
13708;SDS011;54933;51.908;7.730;2023-05-23T12:22:13;0.77;;;0.77;;
13708;SDS011;54933;51.908;7.730;2023-05-23T12:24:43;1.10;;;0.70;;
13708;SDS011;54933;51.908;7.730;2023-05-23T12:27:11;0.70;;;0.70;;
13708;SDS011;54933;51.908;7.730;2023-05-23T12:29:37;0.70;;;0.70;;
13708;SDS011;54933;51.908;7.730;2023-05-23T12:32:03;0.60;;;0.60;;
13708;SDS011;54933;51.908;7.730;2023-05-23T12:34:30;1.40;;;0.73;;
13708;SDS011;54933;51.908;7.730;2023-05-23T12:36:56;0.80;;;0.80;;
13708;SDS011;54933;51.908;7.730;2023-05-23T12:39:23;1.53;;;0.63;;
13708;SDS011;54933;51.908;7.730;2023-05-23T12:41:53;1.07;;;1.00;;
13708;SDS011;54933;51.908;7.730;2023-05-23T12:44:22;0.67;;;0.67;;
13708;SDS011;54933;51.908;7.730;2023-05-23T12:46:48;0.80;;;0.80;;
13708;SDS011;54933;51.908;7.730;2023-05-23T12:49:13;0.70;;;0.70;;
13708;SDS011;54933;51.908;7.730;2023-05-23T12:51:39;0.90;;;0.70;;
13708;SDS011;54933;51.908;7.730;2023-05-23T12:54:04;0.87;;;0.70;;
13708;SDS011;54933;51.908;7.730;2023-05-23T12:56:30;0.60;;;0.57;;
13708;SDS011;54933;51.908;7.730;2023-05-23T12:58:55;1.93;;;0.67;;
13708;SDS011;54933;51.908;7.730;2023-05-23T13:01:21;0.77;;;0.77;;
13708;SDS011;54933;51.908;7.730;2023-05-23T13:03:46;0.90;;;0.90;;
13708;SDS011;54933;51.908;7.730;2023-05-23T13:06:11;1.27;;;0.60;;
13708;SDS011;54933;51.908;7.730;2023-05-23T13:08:37;0.60;;;0.60;;
13708;SDS011;54933;51.908;7.730;2023-05-23T13:11:02;0.87;;;0.87;;
13708;SDS011;54933;51.908;7.730;2023-05-23T13:13:28;0.63;;;0.63;;
13708;SDS011;54933;51.908;7.730;2023-05-23T13:15:54;0.80;;;0.80;;
13708;SDS011;54933;51.908;7.730;2023-05-23T13:18:19;0.63;;;0.60;;
13708;SDS011;54933;51.908;7.730;2023-05-23T13:20:45;0.77;;;0.77;;
13708;SDS011;54933;51.908;7.730;2023-05-23T13:23:10;1.80;;;0.80;;
13708;SDS011;54933;51.908;7.730;2023-05-23T13:25:36;0.60;;;0.60;;
13708;SDS011;54933;51.908;7.730;2023-05-23T13:28:01;1.80;;;1.03;;
13708;SDS011;54933;51.908;7.730;2023-05-23T13:30:27;1.50;;;0.80;;
13708;SDS011;54933;51.908;7.730;2023-05-23T13:32:53;2.63;;;0.57;;
13708;SDS011;54933;51.908;7.730;2023-05-23T13:35:18;1.07;;;0.90;;
13708;SDS011;54933;51.908;7.730;2023-05-23T13:37:43;0.97;;;0.97;;
13708;SDS011;54933;51.908;7.730;2023-05-23T13:40:11;1.30;;;0.80;;
13708;SDS011;54933;51.908;7.730;2023-05-23T13:42:37;1.17;;;0.87;;
13708;SDS011;54933;51.908;7.730;2023-05-23T13:45:03;0.90;;;0.90;;
13708;SDS011;54933;51.908;7.730;2023-05-23T13:47:29;0.60;;;0.60;;
13708;SDS011;54933;51.908;7.730;2023-05-23T13:49:54;0.77;;;0.70;;
13708;SDS011;54933;51.908;7.730;2023-05-23T13:52:20;0.80;;;0.80;;
13708;SDS011;54933;51.908;7.730;2023-05-23T13:54:45;0.60;;;0.60;;
13708;SDS011;54933;51.908;7.730;2023-05-23T13:57:11;2.20;;;0.87;;
13708;SDS011;54933;51.908;7.730;2023-05-23T13:59:36;0.90;;;0.90;;
13708;SDS011;54933;51.908;7.730;2023-05-23T14:02:01;0.70;;;0.70;;
13708;SDS011;54933;51.908;7.730;2023-05-23T14:04:26;3.17;;;0.90;;
13708;SDS011;54933;51.908;7.730;2023-05-23T14:06:52;0.80;;;0.60;;
13708;SDS011;54933;51.908;7.730;2023-05-23T14:09:17;0.60;;;0.60;;
13708;SDS011;54933;51.908;7.730;2023-05-23T14:11:43;0.60;;;0.60;;
13708;SDS011;54933;51.908;7.730;2023-05-23T14:14:08;0.67;;;0.60;;
13708;SDS011;54933;51.908;7.730;2023-05-23T14:16:34;1.13;;;0.80;;
13708;SDS011;54933;51.908;7.730;2023-05-23T14:18:59;1.70;;;0.70;;
13708;SDS011;54933;51.908;7.730;2023-05-23T14:21:25;0.70;;;0.70;;
13708;SDS011;54933;51.908;7.730;2023-05-23T14:23:50;0.70;;;0.60;;
13708;SDS011;54933;51.908;7.730;2023-05-23T14:26:15;0.60;;;0.60;;
13708;SDS011;54933;51.908;7.730;2023-05-23T14:28:41;1.13;;;0.83;;
13708;SDS011;54933;51.908;7.730;2023-05-23T14:31:06;0.50;;;0.50;;
13708;SDS011;54933;51.908;7.730;2023-05-23T14:33:32;0.80;;;0.80;;
13708;SDS011;54933;51.908;7.730;2023-05-23T14:35:57;0.80;;;0.80;;
13708;SDS011;54933;51.908;7.730;2023-05-23T14:38:23;0.87;;;0.87;;
13708;SDS011;54933;51.908;7.730;2023-05-23T14:40:48;1.40;;;0.90;;
13708;SDS011;54933;51.908;7.730;2023-05-23T14:43:14;0.63;;;0.63;;
13708;SDS011;54933;51.908;7.730;2023-05-23T14:45:39;0.77;;;0.77;;
13708;SDS011;54933;51.908;7.730;2023-05-23T14:48:05;1.43;;;0.70;;
13708;SDS011;54933;51.908;7.730;2023-05-23T14:50:31;1.03;;;0.60;;
13708;SDS011;54933;51.908;7.730;2023-05-23T14:52:57;0.90;;;0.70;;
13708;SDS011;54933;51.908;7.730;2023-05-23T14:55:23;1.00;;;1.00;;
13708;SDS011;54933;51.908;7.730;2023-05-23T14:57:49;1.27;;;1.17;;
13708;SDS011;54933;51.908;7.730;2023-05-23T15:00:15;1.07;;;0.80;;
13708;SDS011;54933;51.908;7.730;2023-05-23T15:02:41;0.80;;;0.80;;